Pagrindinis puslapis
METAR-TAF:

METAR-TAF

Oro uostai :

Sautamptonas, Anglija

platuma: 50-54N, ilguma: 001-24W, Aukštis: 9 m

Dabartinis oras

Ataskaita buvo paskelbta 7 valandos ir 12 minutes, ne 14:20 UTC
Vėjas 8 kt iš Šiaurės Vakarų, svyruoja nuo Vakarų ir Šiaurės
Temperatūra 5°C
Drėgmė 65%
Slėgis 996 hPa
Matomumas 10 km arba daugiau
Išsisklaidę debesys ne aukštis 2600 ft

METAR: EGHI 231420Z 31008KT 260V360 9999 SCT026 05/M01 Q0996

Laikas: 21:32 (21:32 UTC)

Prognozė

Ataskaita buvo paskelbta 7 valandos ir 33 minutes, ne 13:59 UTC
Prognozė galioja nuo 23 metu 15 UTC su 23 metu 22 UTC
Vėjas 5 kt iš Šiaurės Vakarų
Matomumas 10 km arba daugiau
Mažai debesys ne aukštis 3000 ft

TAF: EGHI 231359Z 2315/2322 31005KT 9999 FEW030

Orai ataskaitas ir orų prognozės (METAR, TAF).

turimą stotys yra geltonos ir raudonos taškus žemėlapyje.

Perkelti pele per norėdami pamatyti stoties vardą.

Tada spustelėkite, norėdami matyti oro stebėjimo ir prognozės.

Norėdami pakeisti žemėlapį: spustelėkite ant žalios mygtukų su juodo kryžiaus žemyn,; žalią mygtuką su brūkšneliu, jei norite nutolinti; arba žalių rodyklių gretimoms žemėlapius.


METAR-TAF: